.
WxDataArchive / Data Records for 2014-11-28
2014-11-27 November 2014 2014-11-29

Data Records for Friday, 28 November 2014

Time	Temp	Chill	HIndex	Humid	Dewpt	 Wind 	HiWind	WindDir	Rain 	Barom
-----	----	-----	------	-----	-----	------	------	-------	-----	-----
00:00	23.6	23.6	23.6	80	18.4	1	3	270	0.00	30.378 
00:05	23.6	23.6	23.6	81	18.6	1	2	270	0.00	30.378 
00:10	23.5	23.5	23.5	81	18.5	1	2	270	0.00	30.378 
00:15	23.5	23.5	23.5	81	18.5	0	2	270	0.00	30.377 
00:20	23.5	23.5	23.5	81	18.5	0	3	270	0.00	30.377 
00:25	23.5	23.5	23.5	81	18.5	0	2	270	0.00	30.377 
00:30	23.3	23.3	23.3	81	18.3	0	1	270	0.00	30.375 
00:35	23.3	23.3	23.3	81	18.3	0	2	270	0.00	30.375 
00:40	23.2	23.2	23.2	81	18.3	0	2	270	0.00	30.375 
00:45	23.2	23.2	23.2	81	18.3	0	2	270	0.00	30.373 
00:50	23.0	23.0	23.0	81	18.1	0	1	270	0.00	30.373 
00:55	23.0	23.0	23.0	81	18.1	0	1	270	0.00	30.373 
01:00	23.0	23.0	23.0	81	18.1	0	0	---	0.00	30.371 
01:05	22.9	22.9	22.9	81	18.0	0	1	270	0.00	30.371 
01:10	22.7	22.7	22.7	81	17.8	0	1	270	0.00	30.371 
01:15	22.5	22.5	22.5	81	17.6	0	0	---	0.00	30.365 
01:20	22.4	22.4	22.4	81	17.5	0	1	270	0.00	30.365 
01:25	22.2	22.2	22.2	81	17.3	0	1	270	0.00	30.365 
01:30	22.2	22.2	22.2	81	17.3	0	1	270	0.00	30.366 
01:35	22.2	22.2	22.2	81	17.3	0	1	270	0.00	30.366 
01:40	22.2	22.2	22.2	81	17.3	0	1	270	0.00	30.366 
01:45	22.2	22.2	22.2	81	17.3	0	1	270	0.00	30.370 
01:50	22.2	22.2	22.2	81	17.3	0	1	270	0.00	30.370 
01:55	22.2	22.2	22.2	80	17.0	0	1	270	0.00	30.370 
02:00	22.4	22.4	22.4	80	17.2	0	1	270	0.00	30.370 
02:05	22.4	22.4	22.4	80	17.2	0	1	270	0.00	30.370 
02:10	22.4	22.4	22.4	80	17.2	0	2	270	0.00	30.370 
02:15	22.4	22.4	22.4	80	17.2	0	2	270	0.00	30.377 
02:20	22.4	22.4	22.4	79	16.9	0	2	270	0.00	30.377 
02:25	22.2	22.2	22.2	79	16.7	0	1	270	0.00	30.377 
02:30	22.2	22.2	22.2	79	16.7	0	1	270	0.00	30.379 
02:35	21.9	21.9	21.9	79	16.4	0	1	270	0.00	30.379 
02:40	21.8	21.8	21.8	79	16.3	0	2	270	0.00	30.379 
02:45	21.6	21.6	21.6	79	16.1	0	1	270	0.00	30.381 
02:50	21.4	21.4	21.4	79	15.9	0	1	270	0.00	30.381 
02:55	21.3	21.3	21.3	80	16.1	0	0	---	0.00	30.381 
03:00	21.1	21.1	21.1	80	15.9	0	1	270	0.00	30.385 
03:05	21.0	21.0	21.0	80	15.8	0	1	270	0.00	30.385 
03:10	21.0	21.0	21.0	80	15.8	0	1	270	0.00	30.385 
03:15	20.8	20.8	20.8	80	15.6	0	1	270	0.00	30.385 
03:20	20.8	20.8	20.8	80	15.6	0	1	270	0.00	30.385 
03:25	20.8	20.8	20.8	80	15.6	0	0	---	0.00	30.385 
03:30	20.8	20.8	20.8	80	15.6	0	0	---	0.00	30.383 
03:35	20.8	20.8	20.8	80	15.6	0	0	---	0.00	30.383 
03:40	20.8	20.8	20.8	80	15.6	0	0	---	0.00	30.383 
03:45	20.8	20.8	20.8	80	15.6	0	0	---	0.00	30.382 
03:50	20.8	20.8	20.8	80	15.6	0	0	---	0.00	30.382 
03:55	20.8	20.8	20.8	80	15.6	0	0	---	0.00	30.382 
04:00	20.6	20.6	20.6	79	15.1	0	0	---	0.00	30.373 
04:05	20.6	20.6	20.6	79	15.1	0	0	---	0.00	30.373 
04:10	20.6	20.6	20.6	79	15.1	0	0	---	0.00	30.373 
04:15	20.6	20.6	20.6	79	15.1	0	0	---	0.00	30.374 
04:20	20.5	20.5	20.5	79	15.0	0	0	---	0.00	30.374 
04:25	20.5	20.5	20.5	79	15.0	0	0	---	0.00	30.374 
04:30	20.3	20.3	20.3	79	14.8	0	0	---	0.00	30.371 
04:35	20.2	20.2	20.2	79	14.8	0	0	---	0.00	30.371 
04:40	20.0	20.0	20.0	79	14.6	0	0	---	0.00	30.371 
04:45	19.7	19.7	19.7	79	14.3	0	0	---	0.00	30.383 
04:50	19.5	19.5	19.5	79	14.1	0	0	---	0.00	30.383 
04:55	19.4	19.4	19.4	79	14.0	0	0	---	0.00	30.383 
05:00	19.4	19.4	19.4	80	14.3	0	0	---	0.00	30.385 
05:05	19.2	19.2	19.2	80	14.1	0	0	---	0.00	30.385 
05:10	19.2	19.2	19.2	80	14.1	0	0	---	0.00	30.385 
05:15	19.2	19.2	19.2	80	14.1	0	0	---	0.00	30.386 
05:20	19.2	19.2	19.2	80	14.1	0	0	---	0.00	30.386 
05:25	19.2	19.2	19.2	80	14.1	0	0	---	0.00	30.386 
05:30	19.4	19.4	19.4	80	14.3	0	0	---	0.00	30.384 
05:35	19.4	19.4	19.4	81	14.5	0	0	---	0.00	30.384 
05:40	19.5	19.5	19.5	80	14.4	0	0	---	0.00	30.384 
05:45	19.7	19.7	19.7	81	14.8	0	0	---	0.00	30.390 
05:50	19.9	19.9	19.9	80	14.7	0	0	---	0.00	30.390 
05:55	20.0	20.0	20.0	80	14.8	0	0	---	0.00	30.390 
06:00	20.2	20.2	20.2	80	15.0	0	0	---	0.00	30.400 
06:05	20.3	20.3	20.3	80	15.1	0	1	270	0.00	30.400 
06:10	20.5	20.5	20.5	80	15.3	0	1	270	0.00	30.400 
06:15	20.5	20.5	20.5	79	15.0	0	1	270	0.00	30.398 
06:20	20.6	20.6	20.6	79	15.1	0	0	---	0.00	30.398 
06:25	20.6	20.6	20.6	78	14.8	0	1	270	0.00	30.398 
06:30	20.8	20.8	20.8	77	14.7	0	1	270	0.00	30.393 
06:35	20.8	20.8	20.8	77	14.7	0	0	---	0.00	30.393 
06:40	21.0	21.0	21.0	76	14.6	0	0	---	0.00	30.393 
06:45	21.0	21.0	21.0	76	14.6	0	0	---	0.00	30.388 
06:50	21.0	21.0	21.0	75	14.3	0	0	---	0.00	30.388 
06:55	21.0	21.0	21.0	75	14.3	0	0	---	0.00	30.388 
07:00	21.1	21.1	21.1	74	14.1	0	0	---	0.00	30.388 
07:05	21.1	21.1	21.1	74	14.1	0	0	---	0.00	30.388 
07:10	21.1	21.1	21.1	73	13.8	0	0	---	0.00	30.388 
07:15	21.1	21.1	21.1	73	13.8	0	0	---	0.00	30.385 
07:20	21.1	21.1	21.1	73	13.8	0	0	---	0.00	30.385 
07:25	21.1	21.1	21.1	73	13.8	0	0	---	0.00	30.385 
07:30	21.1	21.1	21.1	73	13.8	0	0	---	0.00	30.383 
07:35	21.1	21.1	21.1	73	13.8	0	0	---	0.00	30.383 
07:40	21.1	21.1	21.1	73	13.8	0	0	---	0.00	30.383 
07:45	21.1	21.1	21.1	73	13.8	0	0	---	0.00	30.379 
07:50	21.3	21.3	21.3	73	14.0	0	0	---	0.00	30.379 
07:55	21.1	21.1	21.1	73	13.8	0	1	270	0.00	30.379 
08:00	21.1	21.1	21.1	72	13.5	0	0	---	0.00	30.371 
08:05	21.1	21.1	21.1	72	13.5	0	0	---	0.00	30.371 
08:10	21.3	21.3	21.3	73	14.0	0	0	---	0.00	30.371 
08:15	21.6	21.6	21.6	73	14.3	0	1	270	0.00	30.371 
08:20	21.8	21.8	21.8	72	14.2	0	1	270	0.00	30.371 
08:25	21.9	21.9	21.9	71	14.0	0	1	270	0.00	30.371 
08:30	21.9	21.9	21.9	72	14.3	0	0	---	0.00	30.370 
08:35	22.1	22.1	22.1	72	14.5	0	1	270	0.00	30.370 
08:40	22.2	22.2	22.2	72	14.6	0	1	270	0.00	30.370 
08:45	22.2	22.2	22.2	72	14.6	0	2	270	0.00	30.361 
08:50	22.2	22.2	22.2	72	14.6	0	2	270	0.00	30.361 
08:55	22.4	22.4	22.4	72	14.8	0	1	270	0.00	30.361 
09:00	22.4	22.4	22.4	72	14.8	0	1	270	0.00	30.359 
09:05	22.4	22.4	22.4	72	14.8	0	2	270	0.00	30.359 
09:10	22.5	22.5	22.5	71	14.5	0	1	270	0.00	30.359 
09:15	22.9	22.9	22.9	70	14.6	0	2	135	0.00	30.352 
09:20	23.3	23.3	23.3	69	14.7	0	1	135	0.00	30.352 
09:25	23.6	23.6	23.6	68	14.6	0	1	135	0.00	30.352 
09:30	23.9	23.9	23.9	68	14.9	0	1	135	0.00	30.355 
09:35	24.1	24.1	24.1	67	14.8	0	1	135	0.00	30.355 
09:40	23.9	23.9	23.9	65	13.9	1	3	112	0.00	30.355 
09:45	23.9	23.9	23.9	66	14.2	0	3	112	0.00	30.353 
09:50	24.1	24.1	24.1	66	14.4	0	2	112	0.00	30.353 
09:55	24.4	24.4	24.4	66	14.7	0	3	112	0.00	30.353 
10:00	24.5	24.5	24.5	66	14.8	0	1	112	0.00	30.351 
10:05	24.7	24.7	24.7	66	15.0	0	1	112	0.00	30.351 
10:10	24.7	24.7	24.7	66	15.0	0	2	112	0.00	30.351 
10:15	24.7	24.7	24.7	67	15.3	0	3	158	0.00	30.343 
10:20	24.7	24.7	24.7	67	15.3	0	4	112	0.00	30.343 
10:25	24.7	24.7	24.7	67	15.3	0	2	90	0.00	30.343 
10:30	24.5	24.5	24.5	67	15.1	1	3	112	0.00	30.339 
10:35	24.7	24.7	24.7	67	15.3	0	2	112	0.00	30.339 
10:40	24.7	24.7	24.7	66	15.0	1	4	112	0.00	30.339 
10:45	24.8	24.8	24.8	67	15.4	0	2	112	0.00	30.339 
10:50	25.0	25.0	25.0	66	15.3	0	5	112	0.00	30.339 
10:55	25.0	25.0	25.0	66	15.3	0	2	112	0.00	30.339 
11:00	25.3	25.3	25.3	66	15.6	0	2	112	0.00	30.337 
11:05	25.4	25.4	25.4	66	15.7	0	4	112	0.00	30.337 
11:10	25.6	25.6	25.6	65	15.5	0	4	270	0.00	30.337 
11:15	25.6	25.6	25.6	66	15.8	0	2	270	0.00	30.336 
11:20	25.8	25.8	25.8	67	16.4	0	2	270	0.00	30.336 
11:25	26.0	26.0	26.0	67	16.6	0	2	270	0.00	30.336 
11:30	26.3	26.3	26.3	68	17.2	0	5	90	0.00	30.325 
11:35	26.4	26.4	26.4	69	17.6	0	1	90	0.00	30.325 
11:40	26.6	26.6	26.6	70	18.2	0	3	292	0.00	30.325 
11:45	26.4	26.4	26.4	71	18.3	1	5	0	0.00	30.308 
11:50	26.4	26.4	26.4	73	18.9	0	3	90	0.00	30.308 
11:55	26.4	26.4	26.4	75	19.6	0	2	112	0.00	30.308 
12:00	26.3	26.3	26.3	76	19.8	0	2	112	0.00	30.297 
12:05	26.3	26.3	26.3	76	19.8	0	1	112	0.00	30.297 
12:10	26.3	26.3	26.3	76	19.8	0	2	112	0.00	30.297 
12:15	26.4	26.4	26.4	75	19.6	0	3	248	0.00	30.290 
12:20	26.6	26.6	26.6	73	19.1	0	3	248	0.00	30.290 
12:25	26.6	26.6	26.6	72	18.8	0	4	248	0.00	30.290 
12:30	26.6	26.6	26.6	71	18.5	1	4	248	0.00	30.274 
12:35	26.7	26.7	26.7	71	18.6	1	4	112	0.00	30.274 
12:40	26.9	26.9	26.9	71	18.8	0	2	45	0.00	30.274 
12:45	26.9	26.9	26.9	70	18.4	0	3	45	0.00	30.262 
12:50	27.0	27.0	27.0	70	18.5	0	3	45	0.00	30.262 
12:55	27.2	27.2	27.2	68	18.1	0	3	225	0.00	30.262 
13:00	27.2	27.2	27.2	68	18.1	0	1	248	0.00	30.261 
13:05	27.3	27.3	27.3	68	18.2	1	4	90	0.00	30.261 
13:10	27.5	27.5	27.5	68	18.3	1	4	90	0.00	30.261 
13:15	27.6	27.6	27.6	67	18.1	0	3	270	0.00	30.249 
13:20	27.8	27.8	27.8	67	18.3	1	4	248	0.00	30.249 
13:25	27.9	27.9	27.9	66	18.0	1	6	112	0.00	30.249 
13:30	28.1	28.1	28.1	67	18.6	0	2	68	0.00	30.244 
13:35	28.1	28.1	28.1	66	18.2	1	4	112	0.00	30.244 
13:40	27.9	27.9	27.9	67	18.4	0	3	112	0.00	30.244 
13:45	28.1	28.1	28.1	66	18.2	1	6	90	0.00	30.228 
13:50	28.2	28.2	28.2	66	18.3	1	3	90	0.00	30.228 
13:55	28.1	28.1	28.1	65	17.9	1	5	90	0.00	30.228 
14:00	27.9	27.9	27.9	65	17.7	0	3	90	0.00	30.226 
14:05	28.1	28.1	28.1	66	18.2	0	3	90	0.00	30.226 
14:10	28.2	28.2	28.2	65	18.0	1	4	90	0.00	30.226 
14:15	28.4	28.4	28.4	65	18.2	1	4	90	0.00	30.222 
14:20	28.4	28.4	28.4	65	18.2	0	4	248	0.00	30.222 
14:25	28.7	28.7	28.7	66	18.8	0	2	68	0.00	30.222 
14:30	28.8	28.8	28.8	64	18.2	1	5	112	0.00	30.210 
14:35	28.8	28.8	28.8	65	18.5	0	2	90	0.00	30.210 
14:40	29.0	29.0	29.0	65	18.7	0	3	68	0.00	30.210 
14:45	29.0	29.0	29.0	63	18.0	1	5	68	0.00	30.204 
14:50	29.1	29.1	29.1	63	18.1	1	3	90	0.00	30.204 
14:55	29.4	29.4	29.4	63	18.4	0	2	90	0.00	30.204 
15:00	29.5	29.5	29.5	62	18.1	0	1	90	0.00	30.195 
15:05	29.7	29.7	29.7	62	18.3	1	3	135	0.00	30.195 
15:10	29.8	29.8	29.8	62	18.4	1	3	135	0.00	30.195 
15:15	29.7	29.7	29.7	63	18.7	1	3	90	0.00	30.182 
15:20	29.7	29.7	29.7	62	18.3	1	4	112	0.00	30.182 
15:25	29.7	29.7	29.7	62	18.3	1	4	112	0.00	30.182 
15:30	29.7	29.7	29.7	62	18.3	1	4	90	0.00	30.179 
15:35	29.7	29.7	29.7	63	18.7	1	3	90	0.00	30.179 
15:40	29.7	29.7	29.7	63	18.7	1	5	90	0.00	30.179 
15:45	29.8	29.8	29.8	64	19.1	1	3	90	0.00	30.171 
15:50	29.8	29.8	29.8	64	19.1	1	5	90	0.00	30.171 
15:55	29.8	29.8	29.8	62	18.4	2	5	112	0.00	30.171 
16:00	29.8	29.8	29.8	61	18.0	1	4	112	0.00	30.164 
16:05	29.8	29.8	29.8	62	18.4	1	4	112	0.00	30.164 
16:10	30.0	30.0	30.0	62	18.6	1	4	112	0.00	30.164 
16:15	30.0	30.0	30.0	62	18.6	1	3	112	0.00	30.164 
16:20	30.0	30.0	30.0	62	18.6	1	4	90	0.00	30.164 
16:25	30.0	30.0	30.0	62	18.6	1	5	90	0.00	30.164 
16:30	30.0	30.0	30.0	63	19.0	1	3	90	0.00	30.158 
16:35	30.0	30.0	30.0	63	19.0	1	6	112	0.00	30.158 
16:40	30.0	30.0	30.0	62	18.6	1	6	112	0.00	30.158 
16:45	30.1	30.1	30.1	62	18.7	1	5	112	0.00	30.144 
16:50	30.1	30.1	30.1	63	19.0	1	6	112	0.00	30.144 
16:55	30.1	30.1	30.1	63	19.0	1	5	90	0.00	30.144 
17:00	30.1	30.1	30.1	63	19.0	1	5	112	0.00	30.134 
17:05	30.1	30.1	30.1	63	19.0	1	3	135	0.00	30.134 
17:10	30.1	30.1	30.1	63	19.0	1	3	135	0.00	30.134 
17:15	30.0	30.0	30.0	63	19.0	1	4	68	0.00	30.127 
17:20	30.0	30.0	30.0	63	19.0	1	9	112	0.00	30.127 
17:25	30.0	30.0	30.0	62	18.6	1	3	135	0.00	30.127 
17:30	30.0	30.0	30.0	63	19.0	1	3	112	0.00	30.120 
17:35	30.0	30.0	30.0	64	19.3	1	3	112	0.00	30.120 
17:40	30.0	30.0	30.0	64	19.3	1	4	90	0.00	30.120 
17:45	30.0	30.0	30.0	64	19.3	1	4	112	0.00	30.122 
17:50	30.0	30.0	30.0	64	19.3	0	3	112	0.00	30.122 
17:55	30.0	30.0	30.0	63	19.0	1	3	90	0.00	30.122 
18:00	30.0	30.0	30.0	63	19.0	1	6	112	0.00	30.117 
18:05	30.0	30.0	30.0	63	19.0	1	3	112	0.00	30.117 
18:10	30.0	30.0	30.0	63	19.0	1	2	112	0.00	30.117 
18:15	30.0	30.0	30.0	63	19.0	0	3	112	0.00	30.120 
18:20	30.0	30.0	30.0	63	19.0	1	4	112	0.00	30.120 
18:25	30.0	30.0	30.0	63	19.0	0	2	112	0.00	30.120 
18:30	30.0	30.0	30.0	63	19.0	0	3	112	0.00	30.128 
18:35	30.0	30.0	30.0	63	19.0	1	5	112	0.00	30.128 
18:40	30.1	30.1	30.1	63	19.0	0	4	90	0.00	30.128 
18:45	30.1	30.1	30.1	63	19.0	0	2	112	0.00	30.130 
18:50	30.0	30.0	30.0	63	19.0	0	3	112	0.00	30.130 
18:55	30.0	30.0	30.0	63	19.0	0	2	112	0.00	30.130 
19:00	30.0	30.0	30.0	63	19.0	0	2	112	0.00	30.118 
19:05	30.1	30.1	30.1	63	19.0	1	3	90	0.00	30.118 
19:10	30.1	30.1	30.1	63	19.0	1	3	112	0.00	30.118 
19:15	30.1	30.1	30.1	63	19.0	0	2	135	0.00	30.115 
19:20	30.1	30.1	30.1	63	19.0	1	2	90	0.00	30.115 
19:25	30.1	30.1	30.1	63	19.0	0	2	90	0.00	30.115 
19:30	30.1	30.1	30.1	63	19.0	1	3	158	0.00	30.116 
19:35	30.0	30.0	30.0	63	19.0	0	2	112	0.00	30.116 
19:40	30.0	30.0	30.0	63	19.0	1	4	68	0.00	30.116 
19:45	30.0	30.0	30.0	64	19.3	0	2	68	0.00	30.113 
19:50	30.0	30.0	30.0	64	19.3	0	4	90	0.00	30.113 
19:55	29.8	29.8	29.8	64	19.1	0	1	90	0.00	30.113 
20:00	29.8	29.8	29.8	64	19.1	0	3	90	0.00	30.114 
20:05	29.8	29.8	29.8	64	19.1	0	1	90	0.00	30.114 
20:10	29.7	29.7	29.7	64	19.0	0	1	90	0.00	30.114 
20:15	29.7	29.7	29.7	64	19.0	0	2	90	0.00	30.111 
20:20	29.7	29.7	29.7	64	19.0	0	2	90	0.00	30.111 
20:25	29.7	29.7	29.7	64	19.0	0	2	90	0.00	30.111 
20:30	29.7	29.7	29.7	64	19.0	0	2	90	0.00	30.105 
20:35	29.7	29.7	29.7	64	19.0	0	1	90	0.00	30.105 
20:40	29.7	29.7	29.7	64	19.0	0	2	90	0.00	30.105 
20:45	29.7	29.7	29.7	64	19.0	0	3	90	0.00	30.098 
20:50	29.7	29.7	29.7	64	19.0	0	3	90	0.00	30.098 
20:55	29.7	29.7	29.7	64	19.0	0	2	90	0.00	30.098 
21:00	29.7	29.7	29.7	65	19.4	0	1	90	0.00	30.095 
21:05	29.7	29.7	29.7	64	19.0	0	2	90	0.00	30.095 
21:10	29.7	29.7	29.7	64	19.0	0	2	90	0.00	30.095 
21:15	29.8	29.8	29.8	63	18.8	1	5	90	0.00	30.085 
21:20	30.0	30.0	30.0	64	19.3	0	2	90	0.00	30.085 
21:25	30.0	30.0	30.0	63	19.0	1	3	90	0.00	30.085 
21:30	30.0	30.0	30.0	63	19.0	1	3	90	0.00	30.080 
21:35	30.1	30.1	30.1	63	19.0	0	3	90	0.00	30.080 
21:40	30.1	30.1	30.1	63	19.0	0	1	90	0.00	30.080 
21:45	30.1	30.1	30.1	63	19.0	1	3	90	0.00	30.079 
21:50	30.1	30.1	30.1	63	19.0	0	3	90	0.00	30.079 
21:55	30.1	30.1	30.1	63	19.0	1	2	90	0.00	30.079 
22:00	30.1	30.1	30.1	63	19.0	0	4	90	0.00	30.073 
22:05	30.1	30.1	30.1	63	19.0	0	2	90	0.00	30.073 
22:10	30.3	30.3	30.3	63	19.2	0	2	90	0.00	30.073 
22:15	30.3	30.3	30.3	63	19.2	0	2	112	0.00	30.069 
22:20	30.4	30.4	30.4	63	19.3	0	2	112	0.00	30.069 
22:25	30.4	30.4	30.4	63	19.3	0	2	112	0.00	30.069 
22:30	30.6	30.6	30.6	63	19.5	1	4	112	0.00	30.058 
22:35	30.7	30.7	30.7	63	19.6	1	4	112	0.00	30.058 
22:40	30.7	30.7	30.7	63	19.6	1	3	112	0.00	30.058 
22:45	30.9	30.9	30.9	63	19.8	1	4	112	0.00	30.046 
22:50	30.9	30.9	30.9	62	19.4	2	7	90	0.00	30.046 
22:55	31.0	31.0	31.0	62	19.5	1	3	68	0.00	30.046 
23:00	31.0	31.0	31.0	62	19.5	1	3	90	0.00	30.045 
23:05	31.0	31.0	31.0	62	19.5	1	3	90	0.00	30.045 
23:10	31.2	31.2	31.2	62	19.7	1	3	90	0.00	30.045 
23:15	31.2	31.2	31.2	62	19.7	1	4	90	0.00	30.030 
23:20	31.3	31.3	31.3	62	19.8	1	3	90	0.00	30.030 
23:25	31.3	31.3	31.3	62	19.8	1	4	68	0.00	30.030 
23:30	31.5	31.5	31.5	62	20.0	1	3	68	0.00	30.036 
23:35	31.5	31.5	31.5	62	20.0	0	2	68	0.00	30.036 
23:40	31.6	31.6	31.6	62	20.1	0	2	68	0.00	30.036 
23:45	31.6	31.6	31.6	62	20.1	0	3	68	0.00	30.034 
23:50	31.6	31.6	31.6	62	20.1	0	3	68	0.00	30.034 
23:55	31.6	31.6	31.6	62	20.1	0	2	68	0.00	30.034 

CoCoRaHS
IN-AL-39
A2 Web Hosting
Creative Commons License
GoDaddy
search engine by freefind advanced

loaded 2018-11-12 19:11:34 • last modified 2010-11-18 10:43:29
Privacy PolicyDisclaimer
• wx.awcolley.com is powered by PmWiki v.2002016 •
• all content (unless otherwise noted) © 2018 A W Colley